Time;durP1;ratioP1;P1;durP2;ratioP2;P2;SDS_P1;SDS_P2;PMS_P1;PMS_P2;Temp;Humidity;BMP_temperature;BMP_pressure;BME280_temperature;BME280_humidity;BME280_pressure;Samples;Min_cycle;Max_cycle;Signal;HPM_P1;HPM_P2
2023/07/30 00:00:32;;;;;;;16.42;14.80;;;;;;;18.88;100.00;-18535.13;5102488;28;20046;-76
2023/07/30 00:02:57;;;;;;;15.93;14.52;;;;;;;18.80;100.00;-18532.94;5101034;28;20076;-77
2023/07/30 00:05:23;;;;;;;17.05;15.23;;;;;;;18.71;100.00;-18530.47;5098685;28;20537;-78
2023/07/30 00:07:48;;;;;;;18.00;15.43;;;;;;;18.74;100.00;-18531.16;5102894;28;20050;-76
2023/07/30 00:10:14;;;;;;;18.38;15.43;;;;;;;18.73;100.00;-18531.03;5101786;28;20119;-76
2023/07/30 00:12:40;;;;;;;18.35;16.58;;;;;;;18.71;100.00;-18530.63;5102381;28;20059;-79
2023/07/30 00:15:06;;;;;;;17.33;15.82;;;;;;;18.86;100.00;-18534.44;5101816;28;20039;-77
2023/07/30 00:17:32;;;;;;;16.55;14.88;;;;;;;18.74;100.00;-18531.16;5102209;28;20042;-77
2023/07/30 00:19:57;;;;;;;18.60;16.70;;;;;;;18.64;100.00;-18528.72;5104407;28;20039;-77
2023/07/30 00:22:22;;;;;;;18.73;16.90;;;;;;;18.56;100.00;-18526.53;5101626;28;20048;-77
2023/07/30 00:24:48;;;;;;;19.30;17.27;;;;;;;18.65;100.00;-18528.84;5102183;28;20123;-77
2023/07/30 00:27:13;;;;;;;19.65;17.67;;;;;;;18.51;100.00;-18525.16;5102909;28;20040;-77
2023/07/30 00:29:38;;;;;;;19.65;17.08;;;;;;;18.52;100.00;-18525.44;5105617;28;20039;-78
2023/07/30 00:32:04;;;;;;;20.83;18.73;;;;;;;18.55;100.00;-18526.13;5105732;28;20047;-78
2023/07/30 00:34:29;;;;;;;22.27;17.65;;;;;;;18.57;100.00;-18526.81;5102139;28;20039;-77
2023/07/30 00:36:55;;;;;;;21.25;19.13;;;;;;;18.63;100.00;-18528.44;5102310;28;20032;-77
2023/07/30 00:39:20;;;;;;;19.95;16.75;;;;;;;18.67;100.00;-18529.53;5101859;28;20043;-77
2023/07/30 00:41:46;;;;;;;18.15;16.33;;;;;;;18.69;100.00;-18529.94;5100406;28;20069;-78
2023/07/30 00:44:11;;;;;;;20.00;17.80;;;;;;;18.71;100.00;-18530.47;5100933;28;20039;-77
2023/07/30 00:46:37;;;;;;;18.35;16.33;;;;;;;18.79;100.00;-18532.66;5090066;28;20177;-77
2023/07/30 00:49:02;;;;;;;18.08;16.27;;;;;;;18.71;100.00;-18530.47;5101747;28;20123;-78
2023/07/30 00:51:29;;;;;;;16.58;13.95;;;;;;;18.62;100.00;-18528.16;5099468;28;20092;-77
2023/07/30 00:53:55;;;;;;;15.80;14.25;;;;;;;18.62;100.00;-18528.03;5098548;28;20036;-79
2023/07/30 00:56:20;;;;;;;15.00;13.40;;;;;;;18.50;100.00;-18524.91;5095216;28;20551;-77
2023/07/30 00:58:48;;;;;;;17.15;14.13;;;;;;;18.49;100.00;-18524.63;5103474;28;20511;-77
2023/07/30 01:01:14;;;;;;;17.08;12.70;;;;;;;18.84;100.00;-18533.91;5083198;28;20044;-77
2023/07/30 01:03:39;;;;;;;16.65;12.95;;;;;;;18.77;100.00;-18532.00;5103570;28;20519;-76
2023/07/30 01:06:05;;;;;;;17.67;11.57;;;;;;;18.63;100.00;-18528.31;5101642;28;20059;-77
2023/07/30 01:08:30;;;;;;;14.13;10.90;;;;;;;18.60;100.00;-18527.63;5105273;28;20104;-78
2023/07/30 01:10:57;;;;;;;15.13;9.90;;;;;;;18.65;100.00;-18528.84;5105352;28;20046;-76
2023/07/30 01:13:23;;;;;;;12.55;10.82;;;;;;;18.69;100.00;-18530.06;5105272;28;20093;-77
2023/07/30 01:15:49;;;;;;;12.55;11.07;;;;;;;18.67;100.00;-18529.38;5105980;28;20445;-77
2023/07/30 01:18:14;;;;;;;12.20;9.30;;;;;;;18.65;100.00;-18528.97;5088757;28;20084;-77
2023/07/30 01:20:40;;;;;;;11.50;8.93;;;;;;;18.69;100.00;-18529.94;5103580;28;22204;-77
2023/07/30 01:23:05;;;;;;;14.85;8.57;;;;;;;18.61;100.00;-18527.88;5100270;28;20039;-77
2023/07/30 01:25:35;;;;;;;12.88;9.35;;;;;;;18.64;100.00;-18528.72;5103079;28;20044;-78
2023/07/30 01:28:04;;;;;;;12.73;8.40;;;;;;;18.66;100.00;-18529.25;5101750;28;20042;-78
2023/07/30 01:30:39;;;;;;;14.05;9.05;;;;;;;18.68;100.00;-18529.81;5104522;28;20040;-78
2023/07/30 01:33:05;;;;;;;8.63;6.95;;;;;;;18.63;100.00;-18528.44;5104703;28;20096;-78
2023/07/30 01:35:32;;;;;;;8.75;6.97;;;;;;;18.39;100.00;-18522.03;5094996;28;20046;-77
2023/07/30 01:37:58;;;;;;;11.52;7.40;;;;;;;18.54;100.00;-18525.97;5107443;28;20044;-78
2023/07/30 01:40:24;;;;;;;11.27;6.40;;;;;;;18.42;100.00;-18522.84;5093291;28;20044;-77
2023/07/30 01:42:49;;;;;;;7.68;6.47;;;;;;;18.46;100.00;-18523.94;5108394;28;20062;-76
2023/07/30 01:45:15;;;;;;;11.98;5.93;;;;;;;18.59;100.00;-18527.34;5105878;28;20032;-76
2023/07/30 01:47:40;;;;;;;15.75;6.63;;;;;;;18.65;100.00;-18528.97;5105916;28;20048;-78
2023/07/30 01:50:06;;;;;;;13.63;6.90;;;;;;;18.47;100.00;-18524.06;5105697;28;20043;-75
2023/07/30 01:52:31;;;;;;;9.85;6.20;;;;;;;18.62;100.00;-18528.03;5105930;28;20140;-77
2023/07/30 01:54:58;;;;;;;11.07;6.40;;;;;;;18.64;100.00;-18528.56;5103668;28;20507;-75
2023/07/30 01:57:23;;;;;;;9.57;5.60;;;;;;;18.65;100.00;-18528.97;5100984;28;20031;-77
2023/07/30 01:59:49;;;;;;;10.13;5.65;;;;;;;18.53;100.00;-18525.56;5103707;28;20069;-77
2023/07/30 02:02:14;;;;;;;9.27;5.93;;;;;;;18.46;100.00;-18523.81;5106266;28;20032;-76
2023/07/30 02:04:40;;;;;;;10.18;5.80;;;;;;;18.53;100.00;-18525.72;5104451;28;20039;-77
2023/07/30 02:07:05;;;;;;;10.88;5.80;;;;;;;18.42;100.00;-18522.84;5091650;28;20039;-76
2023/07/30 02:09:30;;;;;;;12.20;6.25;;;;;;;18.59;100.00;-18527.22;5111304;28;20054;-78
2023/07/30 02:11:56;;;;;;;8.73;5.93;;;;;;;18.81;100.00;-18533.06;5106978;28;20106;-77
2023/07/30 02:14:21;;;;;;;10.77;5.80;;;;;;;18.75;100.00;-18531.44;5109372;28;20039;-76
2023/07/30 02:16:46;;;;;;;9.82;6.00;;;;;;;18.74;100.00;-18531.31;5110827;28;20096;-79
2023/07/30 02:19:12;;;;;;;9.70;5.32;;;;;;;18.62;100.00;-18528.16;5106440;28;20112;-78
2023/07/30 02:21:42;;;;;;;11.05;5.13;;;;;;;18.56;100.00;-18526.38;5108294;28;20518;-77
2023/07/30 02:24:09;;;;;;;12.95;5.13;;;;;;;18.41;100.00;-18522.56;5105357;28;20070;-77
2023/07/30 02:26:35;;;;;;;14.45;4.85;;;;;;;18.63;100.00;-18528.31;5105567;28;20185;-79
2023/07/30 02:29:00;;;;;;;8.20;5.05;;;;;;;18.25;100.00;-18518.34;5109787;28;20138;-78
2023/07/30 02:31:26;;;;;;;8.23;5.53;;;;;;;18.18;100.00;-18516.44;5109674;28;20042;-77
2023/07/30 02:33:51;;;;;;;13.23;5.50;;;;;;;18.19;100.00;-18516.56;5109410;28;20040;-77
2023/07/30 02:36:16;;;;;;;10.43;5.18;;;;;;;18.13;100.00;-18515.06;5108189;28;20487;-77
2023/07/30 02:38:42;;;;;;;12.80;5.75;;;;;;;18.20;100.00;-18516.97;5108203;28;20059;-76
2023/07/30 02:41:07;;;;;;;14.05;6.07;;;;;;;18.11;100.00;-18514.53;5111110;28;20684;-78
2023/07/30 02:43:32;;;;;;;12.32;5.40;;;;;;;18.31;100.00;-18519.72;5106696;28;20372;-76
2023/07/30 02:45:58;;;;;;;12.88;5.30;;;;;;;18.26;100.00;-18518.47;5106348;28;20508;-79
2023/07/30 02:48:23;;;;;;;17.63;6.43;;;;;;;18.20;100.00;-18516.84;5086302;28;20448;-78
2023/07/30 02:50:48;;;;;;;11.45;5.90;;;;;;;18.10;100.00;-18514.13;5106678;28;20144;-77
2023/07/30 02:53:14;;;;;;;9.60;5.97;;;;;;;18.10;100.00;-18514.13;5089103;28;20046;-77
2023/07/30 02:55:39;;;;;;;10.60;5.75;;;;;;;18.01;100.00;-18511.81;5106236;28;20062;-75
2023/07/30 02:58:04;;;;;;;8.98;5.28;;;;;;;18.08;100.00;-18513.56;5104665;28;20050;-76
2023/07/30 03:00:29;;;;;;;10.00;5.53;;;;;;;18.21;100.00;-18517.13;5106700;27;20032;-77
2023/07/30 03:02:56;;;;;;;14.38;6.40;;;;;;;18.25;100.00;-18518.22;5109390;28;20161;-77
2023/07/30 03:05:21;;;;;;;9.77;4.97;;;;;;;18.16;100.00;-18515.91;5106636;28;20031;-78
2023/07/30 03:07:47;;;;;;;10.60;6.00;;;;;;;18.23;100.00;-18517.81;5106927;28;20443;-78
2023/07/30 03:10:12;;;;;;;9.23;5.40;;;;;;;18.12;100.00;-18514.81;5105926;28;20181;-78
2023/07/30 03:12:37;;;;;;;11.25;5.32;;;;;;;18.23;100.00;-18517.66;5106642;28;20032;-76
2023/07/30 03:15:03;;;;;;;15.38;5.63;;;;;;;18.20;100.00;-18516.84;5109287;28;20028;-78
2023/07/30 03:17:29;;;;;;;11.45;5.13;;;;;;;18.30;100.00;-18519.44;5104292;28;20074;-78
2023/07/30 03:19:54;;;;;;;9.93;4.80;;;;;;;18.21;100.00;-18517.25;5096726;28;20047;-78
2023/07/30 03:22:19;;;;;;;10.13;4.35;;;;;;;18.11;100.00;-18514.53;5107211;28;20047;-78
2023/07/30 03:24:49;;;;;;;10.35;4.55;;;;;;;18.21;100.00;-18517.25;5091448;28;20035;-77
2023/07/30 03:27:14;;;;;;;10.73;5.03;;;;;;;18.19;100.00;-18516.72;5108573;28;20425;-77
2023/07/30 03:29:39;;;;;;;13.25;4.90;;;;;;;18.21;100.00;-18517.25;5093500;28;20047;-78
2023/07/30 03:32:05;;;;;;;8.45;4.72;;;;;;;18.23;100.00;-18517.81;5108086;28;20051;-76
2023/07/30 03:34:31;;;;;;;11.73;5.65;;;;;;;18.24;100.00;-18517.94;5105338;28;20044;-77
2023/07/30 03:36:56;;;;;;;13.55;5.53;;;;;;;18.30;100.00;-18519.44;5108621;28;20067;-79
2023/07/30 03:39:21;;;;;;;10.07;6.20;;;;;;;18.09;100.00;-18513.84;5109876;28;20109;-77
2023/07/30 03:41:47;;;;;;;14.35;5.80;;;;;;;17.99;100.00;-18511.41;5109567;28;20521;-77
2023/07/30 03:44:12;;;;;;;12.40;5.72;;;;;;;17.91;100.00;-18509.06;5108859;28;20406;-76
2023/07/30 03:46:37;;;;;;;14.20;5.82;;;;;;;17.89;100.00;-18508.66;5109720;28;20047;-76
2023/07/30 03:49:03;;;;;;;11.70;5.88;;;;;;;17.93;100.00;-18509.63;5110727;28;20618;-76
2023/07/30 03:51:28;;;;;;;9.45;5.53;;;;;;;17.93;100.00;-18509.63;5103841;28;20704;-75
2023/07/30 03:53:53;;;;;;;13.70;6.15;;;;;;;17.89;100.00;-18508.66;5106800;28;20384;-79
2023/07/30 03:56:19;;;;;;;13.38;5.53;;;;;;;17.81;100.00;-18506.63;5107805;28;20039;-76
2023/07/30 03:58:44;;;;;;;13.52;6.03;;;;;;;17.91;100.00;-18509.06;5101346;28;20038;-77
2023/07/30 04:01:09;;;;;;;10.95;5.90;;;;;;;17.84;100.00;-18507.16;5108315;28;20540;-79
2023/07/30 04:03:35;;;;;;;12.77;6.30;;;;;;;17.75;100.00;-18504.97;5107630;28;20126;-79
2023/07/30 04:06:00;;;;;;;11.05;5.90;;;;;;;17.81;100.00;-18506.63;5109784;28;20118;-78
2023/07/30 04:08:25;;;;;;;11.02;4.88;;;;;;;17.81;100.00;-18506.63;5102656;28;20036;-78
2023/07/30 04:10:51;;;;;;;10.88;5.60;;;;;;;17.79;100.00;-18506.06;5110041;28;20051;-79
2023/07/30 04:13:16;;;;;;;12.23;5.78;;;;;;;17.86;100.00;-18507.84;5100344;28;20069;-75
2023/07/30 04:15:42;;;;;;;10.15;6.35;;;;;;;17.99;100.00;-18511.25;5109674;28;20097;-78
2023/07/30 04:18:07;;;;;;;11.77;5.50;;;;;;;17.82;100.00;-18506.75;5107471;28;20063;-79
2023/07/30 04:20:32;;;;;;;12.60;6.00;;;;;;;18.01;100.00;-18511.81;5105835;28;20031;-78
2023/07/30 04:22:58;;;;;;;16.63;6.85;;;;;;;17.91;100.00;-18509.22;5107495;28;20062;-79
2023/07/30 04:25:23;;;;;;;17.38;6.25;;;;;;;17.85;100.00;-18507.44;5107628;28;20035;-79
2023/07/30 04:27:48;;;;;;;15.25;7.25;;;;;;;18.01;100.00;-18511.81;5093986;28;20091;-77
2023/07/30 04:30:14;;;;;;;13.75;6.53;;;;;;;18.02;100.00;-18512.22;5109876;28;20089;-79
2023/07/30 04:32:39;;;;;;;16.40;6.95;;;;;;;17.96;100.00;-18510.44;5110836;28;20126;-79
2023/07/30 04:35:05;;;;;;;18.58;8.25;;;;;;;18.29;100.00;-18519.16;5111032;28;20039;-75
2023/07/30 04:37:30;;;;;;;15.55;8.88;;;;;;;18.36;100.00;-18521.06;5106454;28;20084;-79
2023/07/30 04:39:56;;;;;;;13.63;7.65;;;;;;;18.39;100.00;-18521.91;5105009;28;20055;-79
2023/07/30 04:42:22;;;;;;;18.05;7.38;;;;;;;18.42;100.00;-18522.72;5106825;28;20047;-79
2023/07/30 04:44:47;;;;;;;13.93;7.63;;;;;;;18.23;100.00;-18517.81;5103515;28;20032;-77
2023/07/30 04:47:12;;;;;;;16.48;9.23;;;;;;;18.39;100.00;-18521.91;5102640;28;20494;-79
2023/07/30 04:49:40;;;;;;;20.55;9.70;;;;;;;18.42;100.00;-18522.72;5106167;28;20186;-77
2023/07/30 04:52:07;;;;;;;18.02;9.30;;;;;;;18.58;100.00;-18527.06;5103937;28;20039;-77
2023/07/30 04:54:32;;;;;;;16.23;8.48;;;;;;;18.43;100.00;-18523.13;5107602;28;20047;-78
2023/07/30 04:56:57;;;;;;;16.00;9.13;;;;;;;18.45;100.00;-18523.53;5108318;28;20026;-77
2023/07/30 04:59:23;;;;;;;22.40;11.05;;;;;;;18.49;100.00;-18524.75;5104530;28;20040;-76
2023/07/30 05:01:48;;;;;;;22.52;9.07;;;;;;;18.55;100.00;-18526.25;5105445;28;20550;-78
2023/07/30 05:04:13;;;;;;;22.45;10.45;;;;;;;18.66;100.00;-18529.13;5106528;28;20395;-77
2023/07/30 05:06:39;;;;;;;21.08;9.73;;;;;;;18.65;100.00;-18528.97;5103335;28;20097;-78
2023/07/30 05:09:05;;;;;;;22.27;9.77;;;;;;;18.62;100.00;-18528.03;5100773;28;20122;-78
2023/07/30 05:11:30;;;;;;;21.63;9.50;;;;;;;18.58;100.00;-18527.06;5103973;28;20088;-77
2023/07/30 05:13:55;;;;;;;20.30;9.30;;;;;;;18.34;100.00;-18520.53;5105853;28;20394;-77
2023/07/30 05:16:21;;;;;;;18.58;9.55;;;;;;;18.35;100.00;-18520.81;5104971;28;20031;-76
2023/07/30 05:18:47;;;;;;;24.23;10.32;;;;;;;18.40;100.00;-18522.16;5103387;28;20055;-78
2023/07/30 05:21:12;;;;;;;22.67;10.25;;;;;;;18.35;100.00;-18520.94;5085173;28;20051;-76
2023/07/30 05:23:37;;;;;;;18.73;10.75;;;;;;;18.44;100.00;-18523.41;5104837;28;20043;-79
2023/07/30 05:26:03;;;;;;;20.33;11.63;;;;;;;18.48;100.00;-18524.47;5106277;28;20044;-79
2023/07/30 05:28:28;;;;;;;21.98;10.93;;;;;;;18.48;100.00;-18524.34;5087642;28;20036;-77
2023/07/30 05:30:53;;;;;;;26.73;12.20;;;;;;;18.45;100.00;-18523.53;5108566;28;20052;-78
2023/07/30 05:33:19;;;;;;;24.48;13.02;;;;;;;18.52;100.00;-18525.31;5103985;28;20046;-78
2023/07/30 05:35:45;;;;;;;27.10;11.32;;;;;;;18.54;100.00;-18525.84;5106922;28;20038;-76
2023/07/30 05:38:11;;;;;;;25.02;13.15;;;;;;;18.55;100.00;-18526.25;5089085;28;20407;-77
2023/07/30 05:40:36;;;;;;;27.90;11.85;;;;;;;18.58;100.00;-18527.06;5105809;28;20040;-78
2023/07/30 05:43:02;;;;;;;22.10;11.73;;;;;;;18.75;100.00;-18531.56;5110796;28;20031;-78
2023/07/30 05:45:27;;;;;;;24.70;12.70;;;;;;;18.68;100.00;-18529.66;5103543;28;20190;-76
2023/07/30 05:47:53;;;;;;;26.48;12.73;;;;;;;18.87;100.00;-18534.84;5112285;28;20391;-77
2023/07/30 05:50:18;;;;;;;25.92;12.23;;;;;;;18.91;100.00;-18535.81;5092037;28;20059;-77
2023/07/30 05:52:43;;;;;;;27.33;13.57;;;;;;;19.13;100.00;-18541.81;5109309;28;20035;-77
2023/07/30 05:55:09;;;;;;;29.35;13.13;;;;;;;18.88;100.00;-18535.00;5109753;28;20043;-77
2023/07/30 05:57:34;;;;;;;26.08;13.70;;;;;;;18.96;100.00;-18537.16;5108339;28;20048;-78
2023/07/30 05:59:59;;;;;;;28.60;14.40;;;;;;;19.02;100.00;-18538.66;5108523;28;20052;-77
2023/07/30 06:02:25;;;;;;;21.95;12.88;;;;;;;19.04;100.00;-18539.22;5095115;28;20036;-78
2023/07/30 06:04:50;;;;;;;33.95;14.27;;;;;;;19.08;100.00;-18540.31;5110256;28;20031;-77
2023/07/30 06:07:16;;;;;;;30.08;12.90;;;;;;;18.96;100.00;-18537.16;5110885;28;20031;-77
2023/07/30 06:09:41;;;;;;;25.27;12.48;;;;;;;19.05;100.00;-18539.50;5106508;28;20093;-77
2023/07/30 06:12:07;;;;;;;24.00;13.57;;;;;;;19.24;100.00;-18544.66;5107369;28;20051;-79
2023/07/30 06:14:32;;;;;;;33.08;14.68;;;;;;;19.28;100.00;-18545.63;5108084;28;20063;-77
2023/07/30 06:16:57;;;;;;;30.95;14.93;;;;;;;19.23;100.00;-18544.25;5111825;28;20445;-77
2023/07/30 06:19:23;;;;;;;25.50;14.07;;;;;;;19.38;100.00;-18548.34;5105726;28;20036;-80
2023/07/30 06:21:48;;;;;;;25.15;13.98;;;;;;;19.48;100.00;-18550.94;5111540;28;20039;-78
2023/07/30 06:24:14;;;;;;;28.65;15.10;;;;;;;19.39;100.00;-18548.59;5102196;28;20036;-77
2023/07/30 06:26:39;;;;;;;30.00;13.73;;;;;;;19.39;100.00;-18548.75;5106619;28;20351;-77
2023/07/30 06:29:05;;;;;;;29.02;14.63;;;;;;;19.57;100.00;-18553.50;5110629;28;20035;-77
2023/07/30 06:31:31;;;;;;;26.67;13.80;;;;;;;19.63;100.00;-18555.00;5104497;28;20555;-77
2023/07/30 06:33:56;;;;;;;26.85;13.75;;;;;;;19.55;100.00;-18552.84;5104737;28;20118;-77
2023/07/30 06:36:21;;;;;;;28.17;14.30;;;;;;;19.73;100.00;-18557.59;5107070;28;20092;-79
2023/07/30 06:38:47;;;;;;;31.40;13.70;;;;;;;19.67;100.00;-18555.97;5101954;28;20079;-79
2023/07/30 06:41:12;;;;;;;25.80;11.50;;;;;;;19.76;100.00;-18558.56;5110112;28;20055;-78
2023/07/30 06:43:38;;;;;;;27.80;14.27;;;;;;;19.83;100.00;-18560.34;5105613;28;20443;-79
2023/07/30 06:46:03;;;;;;;29.50;12.07;;;;;;;19.46;100.00;-18550.38;5107584;28;20233;-77
2023/07/30 06:48:29;;;;;;;31.25;12.55;;;;;;;19.51;100.00;-18551.88;5091586;28;20175;-77
2023/07/30 06:50:54;;;;;;;21.40;10.30;;;;;;;19.41;100.00;-18549.16;5108529;28;20131;-77
2023/07/30 06:53:19;;;;;;;30.58;12.43;;;;;;;19.54;100.00;-18552.69;5101978;28;20126;-77
2023/07/30 06:55:45;;;;;;;26.02;12.20;;;;;;;19.48;100.00;-18551.06;5107110;28;20152;-77
2023/07/30 06:58:11;;;;;;;30.05;11.80;;;;;;;19.51;100.00;-18551.75;5107710;28;20116;-77
2023/07/30 07:00:36;;;;;;;30.83;12.75;;;;;;;19.48;100.00;-18551.06;5107926;28;20036;-77
2023/07/30 07:03:01;;;;;;;24.33;10.75;;;;;;;19.46;100.00;-18550.53;5107407;28;20032;-78
2023/07/30 07:05:27;;;;;;;26.02;12.63;;;;;;;19.60;100.00;-18554.34;5105041;28;20122;-77
2023/07/30 07:07:52;;;;;;;25.55;13.07;;;;;;;19.59;100.00;-18554.06;5107026;28;20050;-79
2023/07/30 07:10:17;;;;;;;23.25;13.65;;;;;;;19.71;100.00;-18557.19;5107990;28;20054;-79
2023/07/30 07:12:43;;;;;;;28.08;11.23;;;;;;;19.70;100.00;-18556.78;5108150;28;20040;-77
2023/07/30 07:15:08;;;;;;;27.75;11.55;;;;;;;19.79;100.00;-18559.25;5103975;28;20119;-79
2023/07/30 07:17:35;;;;;;;26.75;12.45;;;;;;;19.92;100.00;-18562.78;5103575;28;20043;-77
2023/07/30 07:20:01;;;;;;;25.30;12.02;;;;;;;19.90;100.00;-18562.09;5087183;28;20063;-78
2023/07/30 07:22:26;;;;;;;29.15;12.45;;;;;;;19.90;100.00;-18562.22;5103596;28;20456;-77
2023/07/30 07:24:52;;;;;;;24.50;11.32;;;;;;;19.81;100.00;-18559.91;5108815;28;20105;-79
2023/07/30 07:27:18;;;;;;;19.42;10.73;;;;;;;19.83;100.00;-18560.34;5107879;28;20112;-78
2023/07/30 07:29:43;;;;;;;22.05;11.57;;;;;;;19.95;100.00;-18563.59;5105048;28;20373;-79
2023/07/30 07:32:09;;;;;;;26.15;12.05;;;;;;;20.02;100.00;-18565.50;5108862;28;20039;-79
2023/07/30 07:34:34;;;;;;;23.23;10.93;;;;;;;20.07;100.00;-18566.72;5095631;28;20035;-77
2023/07/30 07:37:01;;;;;;;32.80;13.88;;;;;;;20.17;100.00;-18569.31;5101751;28;20046;-79
2023/07/30 07:39:29;;;;;;;29.48;12.02;;;;;;;20.02;100.00;-18565.38;5100372;28;20066;-78
2023/07/30 07:41:55;;;;;;;26.88;10.82;;;;;;;19.73;100.00;-18557.59;5105370;28;20401;-79
2023/07/30 07:44:21;;;;;;;25.23;11.10;;;;;;;19.63;100.00;-18555.00;5091692;28;20119;-78
2023/07/30 07:46:47;;;;;;;25.48;12.57;;;;;;;19.72;100.00;-18557.34;5103822;28;20064;-79
2023/07/30 07:49:12;;;;;;;29.67;12.48;;;;;;;19.89;100.00;-18561.81;5092226;28;20063;-78
2023/07/30 07:51:38;;;;;;;32.90;12.65;;;;;;;19.98;100.00;-18564.41;5103351;28;20075;-78
2023/07/30 07:54:03;;;;;;;26.33;11.10;;;;;;;20.03;100.00;-18565.78;5104468;28;20406;-78
2023/07/30 07:56:30;;;;;;;26.13;11.00;;;;;;;20.02;100.00;-18565.38;5099911;28;20097;-78
2023/07/30 07:58:55;;;;;;;22.58;10.38;;;;;;;19.98;100.00;-18564.41;5104490;28;20047;-78
2023/07/30 08:01:21;;;;;;;23.45;10.77;;;;;;;20.12;100.00;-18567.97;5092905;27;20048;-76
2023/07/30 08:03:46;;;;;;;25.02;9.70;;;;;;;20.06;100.00;-18566.59;5099485;28;20048;-78
2023/07/30 08:06:11;;;;;;;24.02;11.90;;;;;;;20.24;100.00;-18571.34;5104796;28;20050;-78
2023/07/30 08:08:38;;;;;;;23.25;11.25;;;;;;;20.19;100.00;-18569.84;5105612;28;20097;-77
2023/07/30 08:11:07;;;;;;;21.40;11.15;;;;;;;20.20;100.00;-18570.13;5109190;28;20497;-78
2023/07/30 08:13:34;;;;;;;22.25;9.63;;;;;;;20.17;100.00;-18569.44;5103054;28;20040;-80
2023/07/30 08:15:59;;;;;;;25.90;12.55;;;;;;;20.31;100.00;-18573.13;5110150;28;20500;-78
2023/07/30 08:18:25;;;;;;;28.15;11.85;;;;;;;20.38;100.00;-18574.91;5104417;28;20035;-77
2023/07/30 08:20:51;;;;;;;24.33;10.60;;;;;;;20.57;100.00;-18580.06;5106884;28;20043;-77
2023/07/30 08:23:16;;;;;;;20.10;9.85;;;;;;;20.44;100.00;-18576.66;5105241;28;20035;-78
2023/07/30 08:25:41;;;;;;;17.63;10.68;;;;;;;20.45;100.00;-18576.78;5102691;28;20616;-79
2023/07/30 08:28:07;;;;;;;25.88;10.20;;;;;;;20.36;100.00;-18574.34;5090376;28;20109;-78
2023/07/30 08:30:32;;;;;;;17.63;9.52;;;;;;;20.39;100.00;-18575.31;5103349;28;20032;-77
2023/07/30 08:32:58;;;;;;;21.35;9.40;;;;;;;20.51;100.00;-18578.56;5104370;28;20051;-79
2023/07/30 08:35:23;;;;;;;20.80;10.00;;;;;;;20.55;100.00;-18579.38;5105834;27;20039;-79
2023/07/30 08:37:51;;;;;;;18.48;9.68;;;;;;;20.72;100.00;-18584.16;5108314;27;20051;-78
2023/07/30 08:40:17;;;;;;;15.80;9.40;;;;;;;20.70;100.00;-18583.59;5104812;27;20522;-77
2023/07/30 08:42:42;;;;;;;22.70;9.50;;;;;;;20.94;100.00;-18590.00;5098227;28;20059;-78
2023/07/30 08:45:08;;;;;;;19.98;8.10;;;;;;;21.07;100.00;-18593.25;5093360;28;20031;-77
2023/07/30 08:47:35;;;;;;;24.27;9.30;;;;;;;21.09;100.00;-18593.81;5097783;28;20043;-78
2023/07/30 08:50:00;;;;;;;18.95;7.72;;;;;;;21.01;100.00;-18591.63;5107049;28;20047;-77
2023/07/30 08:52:27;;;;;;;18.20;7.53;;;;;;;21.18;100.00;-18596.25;5102262;28;20031;-79
2023/07/30 08:54:55;;;;;;;18.38;7.20;;;;;;;20.99;100.00;-18591.22;5106085;28;20511;-79
2023/07/30 08:57:21;;;;;;;17.00;8.00;;;;;;;21.31;100.00;-18599.66;5087044;28;20598;-77
2023/07/30 08:59:52;;;;;;;16.48;6.88;;;;;;;21.29;100.00;-18599.25;5106166;28;20047;-78
2023/07/30 09:02:26;;;;;;;13.80;5.95;;;;;;;21.43;100.00;-18602.78;5105525;28;20043;-78
2023/07/30 09:04:56;;;;;;;16.00;6.25;;;;;;;21.54;100.00;-18605.78;5103634;28;20100;-77
2023/07/30 09:07:24;;;;;;;15.75;6.18;;;;;;;21.48;100.00;-18604.16;5099570;28;20107;-78
2023/07/30 09:09:50;;;;;;;13.25;5.13;;;;;;;21.65;100.00;-18608.75;5103186;28;20040;-79
2023/07/30 09:12:15;;;;;;;11.90;5.53;;;;;;;21.64;100.00;-18608.50;5101525;28;20047;-78
2023/07/30 09:14:44;;;;;;;11.68;4.85;;;;;;;21.53;100.00;-18605.50;5090946;28;20115;-78
2023/07/30 09:17:11;;;;;;;13.93;5.53;;;;;;;21.63;100.00;-18608.34;5104223;28;20061;-77
2023/07/30 09:19:37;;;;;;;11.32;5.22;;;;;;;21.48;100.00;-18604.28;5109357;28;20058;-79
2023/07/30 09:22:08;;;;;;;15.43;4.70;;;;;;;21.60;100.00;-18607.53;5108464;28;20133;-78
2023/07/30 09:24:33;;;;;;;11.85;4.45;;;;;;;21.68;100.00;-18609.44;5103609;28;20039;-79
2023/07/30 09:27:02;;;;;;;16.20;5.53;;;;;;;21.79;100.00;-18612.56;5108339;28;20517;-79
2023/07/30 09:29:28;;;;;;;17.80;4.85;;;;;;;21.94;100.00;-18616.38;5099289;28;20047;-77
2023/07/30 09:31:57;;;;;;;10.32;3.85;;;;;;;21.98;100.00;-18617.47;5078962;28;20512;-78
2023/07/30 09:34:24;;;;;;;13.30;4.25;;;;;;;22.11;100.00;-18621.00;5056519;28;20131;-78
2023/07/30 09:36:52;;;;;;;13.10;4.95;;;;;;;22.32;100.00;-18626.56;5057639;28;20136;-80
2023/07/30 09:39:20;;;;;;;9.88;4.18;;;;;;;22.56;100.00;-18632.81;5053529;28;20117;-78
2023/07/30 09:41:46;;;;;;;16.92;5.57;;;;;;;22.35;100.00;-18627.25;5059359;28;20458;-78
2023/07/30 09:44:12;;;;;;;11.40;4.25;;;;;;;22.37;100.00;-18627.91;5057519;28;20066;-78
2023/07/30 09:46:45;;;;;;;11.38;3.35;;;;;;;22.33;100.00;-18626.84;5053274;28;20048;-79
2023/07/30 09:49:11;;;;;;;13.27;3.50;;;;;;;22.40;100.00;-18628.59;5062934;28;20040;-78
2023/07/30 09:51:40;;;;;;;12.00;3.72;;;;;;;22.55;100.00;-18632.53;5040367;28;20094;-79
2023/07/30 09:54:07;;;;;;;8.95;3.28;;;;;;;22.58;100.00;-18633.34;5054482;28;20049;-76
2023/07/30 09:56:33;;;;;;;11.00;3.40;;;;;;;22.75;100.00;-18637.97;5051509;28;20055;-78
2023/07/30 09:58:59;;;;;;;10.98;3.40;;;;;;;22.68;100.00;-18636.19;5095122;28;20036;-78
2023/07/30 10:01:28;;;;;;;10.85;3.42;;;;;;;22.65;100.00;-18635.25;5102844;28;20406;-79
2023/07/30 10:03:55;;;;;;;;;;;;;;;22.65;100.00;-18635.25;5100440;28;20403;-78
2023/07/30 10:06:23;;;;;;;10.05;2.70;;;;;;;22.47;100.00;-18630.50;5100658;28;19937;-77
2023/07/30 10:08:50;;;;;;;9.07;3.35;;;;;;;22.28;100.00;-18625.63;5106388;28;20055;-79
2023/07/30 10:11:16;;;;;;;13.07;3.08;;;;;;;22.28;100.00;-18625.47;5102788;28;20035;-77
2023/07/30 10:13:42;;;;;;;8.57;3.42;;;;;;;22.32;100.00;-18626.56;5085328;28;20395;-78
2023/07/30 10:16:11;;;;;;;8.27;2.65;;;;;;;22.33;100.00;-18626.69;5104971;28;20062;-77
2023/07/30 10:18:40;;;;;;;8.13;2.45;;;;;;;22.30;100.00;-18626.16;5105013;28;20086;-77
2023/07/30 10:21:10;;;;;;;8.07;2.38;;;;;;;22.29;100.00;-18625.88;5106568;28;20054;-76
2023/07/30 10:23:46;;;;;;;9.43;2.70;;;;;;;22.41;100.00;-18628.88;5104154;28;20035;-78
2023/07/30 10:26:11;;;;;;;8.35;2.45;;;;;;;22.47;100.00;-18630.50;5101610;28;20578;-80
2023/07/30 10:28:39;;;;;;;9.02;2.88;;;;;;;22.49;100.00;-18631.03;5106145;28;20044;-80
2023/07/30 10:31:08;;;;;;;8.23;2.20;;;;;;;22.48;99.49;-18630.91;5113243;28;20519;-79
2023/07/30 10:33:51;;;;;;;8.25;2.10;;;;;;;22.49;100.00;-18631.19;5109730;28;20052;-79
2023/07/30 10:36:26;;;;;;;10.13;2.58;;;;;;;22.83;100.00;-18640.00;5109170;28;20039;-79
2023/07/30 10:38:51;;;;;;;6.78;2.05;;;;;;;22.83;95.56;-18640.13;5112248;28;20056;-78
2023/07/30 10:41:19;;;;;;;7.10;2.38;;;;;;;22.64;93.86;-18635.13;5093100;28;20042;-78
2023/07/30 10:43:49;;;;;;;10.20;2.42;;;;;;;22.64;95.07;-18635.13;5096115;28;20036;-81
2023/07/30 10:46:20;;;;;;;8.68;2.50;;;;;;;22.79;95.06;-18639.06;5107812;28;20139;-80
2023/07/30 10:48:47;;;;;;;8.38;3.13;;;;;;;22.81;93.94;-18639.47;5109119;28;20043;-80
2023/07/30 10:51:17;;;;;;;8.85;2.63;;;;;;;22.82;89.99;-18639.72;5108397;28;20046;-81
2023/07/30 10:53:47;;;;;;;8.25;2.35;;;;;;;22.95;90.52;-18643.25;5106567;28;20051;-78
2023/07/30 10:56:15;;;;;;;8.02;2.58;;;;;;;22.84;89.32;-18640.28;5107708;28;20035;-80
2023/07/30 10:58:42;;;;;;;8.23;2.60;;;;;;;22.78;89.68;-18638.66;5103592;28;20130;-80
2023/07/30 11:01:08;;;;;;;7.75;2.15;;;;;;;22.72;90.47;-18637.28;5105505;28;20498;-78